createdAt,value
2023-02-05T00:00:15.396Z,1036.6
2023-02-05T00:02:12.998Z,1036.6
2023-02-05T00:04:12.930Z,1036.6
2023-02-05T00:06:12.935Z,1036.6
2023-02-05T00:08:14.266Z,1036.5
2023-02-05T00:10:13.007Z,1036.5
2023-02-05T00:12:15.500Z,1036.5
2023-02-05T00:14:13.021Z,1036.5
2023-02-05T00:16:12.926Z,1036.5
2023-02-05T00:18:12.801Z,1036.5
2023-02-05T00:20:13.049Z,1036.4
2023-02-05T00:22:15.471Z,1036.4
2023-02-05T00:24:12.945Z,1036.5
2023-02-05T00:26:12.811Z,1036.5
2023-02-05T00:28:13.051Z,1036.4
2023-02-05T00:30:12.829Z,1036.4
2023-02-05T00:32:13.109Z,1036.4
2023-02-05T00:34:12.819Z,1036.4
2023-02-05T00:36:13.084Z,1036.4
2023-02-05T00:38:12.829Z,1036.4
2023-02-05T00:40:12.864Z,1036.3
2023-02-05T00:42:12.808Z,1036.3
2023-02-05T00:44:12.796Z,1036.3
2023-02-05T00:46:12.848Z,1036.4
2023-02-05T00:48:12.857Z,1036.3
2023-02-05T00:50:12.839Z,1036.3
2023-02-05T00:52:12.829Z,1036.3
2023-02-05T00:54:12.773Z,1036.3
2023-02-05T00:56:12.823Z,1036.3
2023-02-05T00:58:12.786Z,1036.4
2023-02-05T01:00:12.817Z,1036.3
2023-02-05T01:02:16.831Z,1036.3
2023-02-05T01:04:12.871Z,1036.4
2023-02-05T01:06:12.891Z,1036.4
2023-02-05T01:08:12.811Z,1036.4
2023-02-05T01:10:12.850Z,1036.4
2023-02-05T01:12:12.944Z,1036.5
2023-02-05T01:14:12.767Z,1036.5
2023-02-05T01:16:12.920Z,1036.5
2023-02-05T01:18:13.032Z,1036.5
2023-02-05T01:20:12.892Z,1036.6
2023-02-05T01:22:12.911Z,1036.6
2023-02-05T01:24:12.728Z,1036.6
2023-02-05T01:26:12.904Z,1036.5
2023-02-05T01:28:12.881Z,1036.5
2023-02-05T01:30:12.745Z,1036.5
2023-02-05T01:32:12.790Z,1036.4
2023-02-05T01:34:12.709Z,1036.4
2023-02-05T01:36:13.947Z,1036.3
2023-02-05T01:38:12.934Z,1036.4
2023-02-05T01:40:12.822Z,1036.3
2023-02-05T01:42:12.694Z,1036.3
2023-02-05T01:44:13.776Z,1036.3
2023-02-05T01:46:13.008Z,1036.3
2023-02-05T01:48:12.814Z,1036.2
2023-02-05T01:50:12.765Z,1036.2
2023-02-05T01:52:12.671Z,1036.2
2023-02-05T01:54:12.782Z,1036.2
2023-02-05T01:56:12.718Z,1036.2
2023-02-05T01:58:12.635Z,1036.1
2023-02-05T02:00:12.678Z,1036.1
2023-02-05T02:02:14.018Z,1036.1
2023-02-05T02:04:12.759Z,1036.1
2023-02-05T02:06:12.724Z,1036.1
2023-02-05T02:08:12.693Z,1036.1
2023-02-05T02:10:12.699Z,1036.1
2023-02-05T02:12:12.719Z,1036
2023-02-05T02:14:13.019Z,1036
2023-02-05T02:16:12.793Z,1036
2023-02-05T02:18:12.634Z,1036
2023-02-05T02:20:12.649Z,1036
2023-02-05T02:22:12.627Z,1035.9
2023-02-05T02:24:12.823Z,1035.9
2023-02-05T02:26:12.665Z,1035.9
2023-02-05T02:28:12.698Z,1035.9
2023-02-05T02:30:12.666Z,1035.9
2023-02-05T02:32:17.063Z,1035.9
2023-02-05T02:34:12.626Z,1035.9
2023-02-05T02:36:12.639Z,1035.8
2023-02-05T02:38:12.582Z,1035.8
2023-02-05T02:40:12.746Z,1035.8
2023-02-05T02:42:12.671Z,1035.8
2023-02-05T02:44:12.854Z,1035.8
2023-02-05T02:46:12.637Z,1035.8
2023-02-05T02:48:12.601Z,1035.8
2023-02-05T02:50:12.594Z,1035.8
2023-02-05T02:52:12.621Z,1035.8
2023-02-05T02:54:12.654Z,1035.7
2023-02-05T02:56:14.042Z,1035.7
2023-02-05T02:58:12.628Z,1035.7
2023-02-05T03:00:12.610Z,1035.7
2023-02-05T03:02:12.615Z,1035.7
2023-02-05T03:04:12.666Z,1035.7
2023-02-05T03:06:12.624Z,1035.7
2023-02-05T03:08:12.614Z,1035.7
2023-02-05T03:10:12.690Z,1035.7
2023-02-05T03:12:12.641Z,1035.7
2023-02-05T03:14:12.847Z,1035.7
2023-02-05T03:16:12.689Z,1035.6
2023-02-05T03:18:12.620Z,1035.6
2023-02-05T03:20:12.734Z,1035.6
2023-02-05T03:22:12.604Z,1035.5
2023-02-05T03:24:12.793Z,1035.5
2023-02-05T03:26:12.643Z,1035.5
2023-02-05T03:28:12.661Z,1035.5
2023-02-05T03:30:13.619Z,1035.5
2023-02-05T03:32:12.589Z,1035.6
2023-02-05T03:34:12.583Z,1035.5
2023-02-05T03:36:12.544Z,1035.5
2023-02-05T03:38:12.559Z,1035.5
2023-02-05T03:40:12.594Z,1035.5
2023-02-05T03:42:12.560Z,1035.5
2023-02-05T03:44:12.528Z,1035.5
2023-02-05T03:46:12.510Z,1035.5
2023-02-05T03:48:12.561Z,1035.5
2023-02-05T03:50:12.577Z,1035.4
2023-02-05T03:52:12.516Z,1035.4
2023-02-05T03:54:12.582Z,1035.4
2023-02-05T03:56:12.538Z,1035.4
2023-02-05T03:58:12.515Z,1035.3
2023-02-05T04:00:12.579Z,1035.3
2023-02-05T04:02:12.616Z,1035.3
2023-02-05T04:04:12.538Z,1035.3
2023-02-05T04:06:12.524Z,1035.3
2023-02-05T04:08:12.505Z,1035.3
2023-02-05T04:10:12.494Z,1035.3
2023-02-05T04:12:12.469Z,1035.3
2023-02-05T04:14:12.500Z,1035.2
2023-02-05T04:16:12.497Z,1035.2
2023-02-05T04:18:12.480Z,1035.2
2023-02-05T04:20:12.522Z,1035.2
2023-02-05T04:22:12.535Z,1035.2
2023-02-05T04:24:12.535Z,1035.2
2023-02-05T04:26:12.476Z,1035.2
2023-02-05T04:28:12.499Z,1035.1
2023-02-05T04:30:12.500Z,1035.1
2023-02-05T04:32:12.522Z,1035.1
2023-02-05T04:34:12.536Z,1035
2023-02-05T04:36:12.506Z,1034.9
2023-02-05T04:38:12.465Z,1034.9
2023-02-05T04:40:12.567Z,1034.8
2023-02-05T04:42:12.589Z,1034.8
2023-02-05T04:44:12.459Z,1034.7
2023-02-05T04:46:12.468Z,1034.7
2023-02-05T04:48:12.512Z,1034.6
2023-02-05T04:50:12.457Z,1034.6
2023-02-05T04:52:12.530Z,1034.7
2023-02-05T04:54:12.403Z,1034.7
2023-02-05T04:56:12.401Z,1034.7
2023-02-05T04:58:12.417Z,1034.8
2023-02-05T05:00:12.438Z,1034.7
2023-02-05T05:02:12.493Z,1034.7
2023-02-05T05:04:12.441Z,1034.7
2023-02-05T05:06:12.466Z,1034.6
2023-02-05T05:08:12.405Z,1034.6
2023-02-05T05:10:12.504Z,1034.6
2023-02-05T05:12:12.392Z,1034.6
2023-02-05T05:14:12.388Z,1034.6
2023-02-05T05:16:12.515Z,1034.6
2023-02-05T05:18:12.381Z,1034.6
2023-02-05T05:20:12.431Z,1034.7
2023-02-05T05:22:12.389Z,1034.7
2023-02-05T05:24:12.426Z,1034.6
2023-02-05T05:26:12.419Z,1034.5
2023-02-05T05:28:12.465Z,1034.4
2023-02-05T05:30:12.385Z,1034.4
2023-02-05T05:32:12.361Z,1034.3
2023-02-05T05:34:12.444Z,1034.3
2023-02-05T05:36:12.428Z,1034.2
2023-02-05T05:38:13.775Z,1034.2
2023-02-05T05:40:12.394Z,1034.1
2023-02-05T05:42:12.365Z,1034
2023-02-05T05:44:12.393Z,1034
2023-02-05T05:46:12.455Z,1034.1
2023-02-05T05:48:12.372Z,1034
2023-02-05T05:50:12.353Z,1034.1
2023-02-05T05:52:12.386Z,1034.1
2023-02-05T05:54:12.386Z,1034.1
2023-02-05T05:56:12.374Z,1034.2
2023-02-05T05:58:12.321Z,1034.1
2023-02-05T06:00:12.363Z,1034.1
2023-02-05T06:02:12.497Z,1034.2
2023-02-05T06:04:12.390Z,1034.1
2023-02-05T06:06:12.362Z,1034
2023-02-05T06:08:12.353Z,1034
2023-02-05T06:10:12.329Z,1033.9
2023-02-05T06:12:12.357Z,1033.9
2023-02-05T06:14:12.365Z,1033.9
2023-02-05T06:16:12.390Z,1033.9
2023-02-05T06:18:12.318Z,1034
2023-02-05T06:20:12.436Z,1033.9
2023-02-05T06:22:12.368Z,1033.9
2023-02-05T06:24:12.354Z,1033.9
2023-02-05T06:26:12.301Z,1033.9
2023-02-05T06:28:12.439Z,1033.9
2023-02-05T06:30:12.447Z,1033.9
2023-02-05T06:32:12.344Z,1033.8
2023-02-05T06:34:12.271Z,1033.9
2023-02-05T06:36:12.366Z,1033.9
2023-02-05T06:38:12.298Z,1033.9
2023-02-05T06:40:12.349Z,1033.8
2023-02-05T06:42:12.294Z,1033.7
2023-02-05T06:44:12.273Z,1033.7
2023-02-05T06:46:12.312Z,1033.7
2023-02-05T06:48:12.295Z,1033.7
2023-02-05T06:50:12.317Z,1033.7
2023-02-05T06:52:12.237Z,1033.6
2023-02-05T06:54:12.335Z,1033.6
2023-02-05T06:56:12.303Z,1033.6
2023-02-05T06:58:12.262Z,1033.6
2023-02-05T07:00:12.264Z,1033.5
2023-02-05T07:02:12.278Z,1033.6
2023-02-05T07:04:12.244Z,1033.6
2023-02-05T07:06:12.314Z,1033.6
2023-02-05T07:08:12.307Z,1033.6
2023-02-05T07:10:12.290Z,1033.6
2023-02-05T07:12:12.252Z,1033.5
2023-02-05T07:14:12.272Z,1033.4
2023-02-05T07:16:12.341Z,1033.4
2023-02-05T07:18:12.249Z,1033.3
2023-02-05T07:20:12.261Z,1033.3
2023-02-05T07:22:12.291Z,1033.4
2023-02-05T07:24:12.233Z,1033.4
2023-02-05T07:26:12.261Z,1033.3
2023-02-05T07:28:12.357Z,1033.3
2023-02-05T07:30:12.294Z,1033.3
2023-02-05T07:32:12.275Z,1033.3
2023-02-05T07:34:12.314Z,1033.3
2023-02-05T07:36:12.249Z,1033.3
2023-02-05T07:38:12.242Z,1033.2
2023-02-05T07:40:12.298Z,1033.2
2023-02-05T07:42:12.202Z,1033.1
2023-02-05T07:44:12.221Z,1033.1
2023-02-05T07:46:12.317Z,1033.1
2023-02-05T07:48:12.225Z,1033
2023-02-05T07:50:12.184Z,1032.9
2023-02-05T07:52:12.215Z,1032.9
2023-02-05T07:54:12.194Z,1033
2023-02-05T07:56:12.236Z,1033
2023-02-05T07:58:12.201Z,1032.9
2023-02-05T08:00:12.179Z,1033
2023-02-05T08:02:12.185Z,1032.9
2023-02-05T08:04:12.267Z,1032.9
2023-02-05T08:06:12.183Z,1032.9
2023-02-05T08:08:12.168Z,1032.8
2023-02-05T08:10:12.136Z,1032.7
2023-02-05T08:12:12.166Z,1032.7
2023-02-05T08:14:12.159Z,1032.8
2023-02-05T08:16:12.183Z,1032.8
2023-02-05T08:18:12.141Z,1032.7
2023-02-05T08:20:12.176Z,1032.7
2023-02-05T08:22:12.194Z,1032.7
2023-02-05T08:24:12.185Z,1032.6
2023-02-05T08:26:12.144Z,1032.6
2023-02-05T08:28:12.178Z,1032.7
2023-02-05T08:30:12.165Z,1032.7
2023-02-05T08:32:12.187Z,1032.7
2023-02-05T08:34:12.153Z,1032.6
2023-02-05T08:36:12.129Z,1032.5
2023-02-05T08:38:12.136Z,1032.4
2023-02-05T08:40:12.144Z,1032.4
2023-02-05T08:42:12.152Z,1032.4
2023-02-05T08:44:12.168Z,1032.4
2023-02-05T08:46:12.335Z,1032.4
2023-02-05T08:48:12.209Z,1032.4
2023-02-05T08:50:12.133Z,1032.4
2023-02-05T08:52:12.171Z,1032.3
2023-02-05T08:54:12.173Z,1032.2
2023-02-05T08:56:12.121Z,1032.2
2023-02-05T08:58:12.146Z,1032.2
2023-02-05T09:00:12.131Z,1032.1
2023-02-05T09:02:12.109Z,1032.1
2023-02-05T09:04:12.161Z,1032.2
2023-02-05T09:06:12.131Z,1032.3
2023-02-05T09:08:12.115Z,1032.2
2023-02-05T09:10:12.115Z,1032.1
2023-02-05T09:12:12.058Z,1032.1
2023-02-05T09:14:12.157Z,1032.1
2023-02-05T09:16:12.126Z,1032.1
2023-02-05T09:18:12.084Z,1032.1
2023-02-05T09:20:12.049Z,1032.1
2023-02-05T09:22:12.049Z,1032.2
2023-02-05T09:24:12.128Z,1032.2
2023-02-05T09:26:12.118Z,1032.2
2023-02-05T09:28:12.118Z,1032.1
2023-02-05T09:30:12.042Z,1032.1
2023-02-05T09:32:12.050Z,1032
2023-02-05T09:34:12.087Z,1031.9
2023-02-05T09:36:12.099Z,1031.9
2023-02-05T09:38:12.063Z,1031.9
2023-02-05T09:40:20.383Z,1031.9
2023-02-05T09:42:12.062Z,1031.9
2023-02-05T09:44:12.079Z,1031.8
2023-02-05T09:46:12.103Z,1031.8
2023-02-05T09:48:12.127Z,1031.7
2023-02-05T09:50:12.002Z,1031.7
2023-02-05T09:52:12.078Z,1031.7
2023-02-05T09:54:12.066Z,1031.8
2023-02-05T09:56:12.089Z,1031.7
2023-02-05T09:58:12.018Z,1031.7
2023-02-05T10:00:12.022Z,1031.7
2023-02-05T10:02:12.030Z,1031.7
2023-02-05T10:04:12.111Z,1031.6
2023-02-05T10:06:11.982Z,1031.6
2023-02-05T10:08:11.987Z,1031.7
2023-02-05T10:10:12.039Z,1031.7
2023-02-05T10:12:12.041Z,1031.6
2023-02-05T10:14:12.053Z,1031.7
2023-02-05T10:16:12.108Z,1031.7
2023-02-05T10:18:12.032Z,1031.6
2023-02-05T10:20:12.068Z,1031.7
2023-02-05T10:22:12.040Z,1031.7
2023-02-05T10:24:11.982Z,1031.7
2023-02-05T10:26:12.057Z,1031.6
2023-02-05T10:28:12.014Z,1031.6
2023-02-05T10:30:12.031Z,1031.5
2023-02-05T10:32:11.969Z,1031.5
2023-02-05T10:34:11.960Z,1031.6
2023-02-05T10:36:12.008Z,1031.6
2023-02-05T10:38:12.023Z,1031.6
2023-02-05T10:40:12.001Z,1031.5
2023-02-05T10:42:11.958Z,1031.6
2023-02-05T10:44:12.020Z,1031.6
2023-02-05T10:46:12.051Z,1031.6
2023-02-05T10:48:11.975Z,1031.6
2023-02-05T10:50:13.375Z,1031.6
2023-02-05T10:52:11.936Z,1031.6
2023-02-05T10:54:11.979Z,1031.6
2023-02-05T10:56:11.966Z,1031.6
2023-02-05T10:58:11.976Z,1031.7
2023-02-05T11:00:11.973Z,1031.7
2023-02-05T11:02:13.335Z,1031.7
2023-02-05T11:04:12.014Z,1031.7
2023-02-05T11:06:11.980Z,1031.6
2023-02-05T11:08:11.926Z,1031.6
2023-02-05T11:10:11.919Z,1031.5
2023-02-05T11:12:11.954Z,1031.5
2023-02-05T11:14:11.948Z,1031.5
2023-02-05T11:16:12.019Z,1031.4
2023-02-05T11:18:11.906Z,1031.4
2023-02-05T11:20:11.947Z,1031.4
2023-02-05T11:22:11.948Z,1031.4
2023-02-05T11:24:11.927Z,1031.4
2023-02-05T11:26:11.926Z,1031.4
2023-02-05T11:28:11.924Z,1031.4
2023-02-05T11:30:11.921Z,1031.5
2023-02-05T11:32:13.736Z,1031.5
2023-02-05T11:34:11.971Z,1031.5
2023-02-05T11:36:11.864Z,1031.5
2023-02-05T11:38:11.924Z,1031.6
2023-02-05T11:40:11.895Z,1031.5
2023-02-05T11:42:11.938Z,1031.5
2023-02-05T11:44:11.925Z,1031.5
2023-02-05T11:46:11.921Z,1031.5
2023-02-05T11:48:11.907Z,1031.5
2023-02-05T11:50:11.949Z,1031.5
2023-02-05T11:52:13.862Z,1031.5
2023-02-05T11:54:11.905Z,1031.5
2023-02-05T11:56:11.905Z,1031.5
2023-02-05T11:58:11.943Z,1031.5
2023-02-05T12:00:11.844Z,1031.5
2023-02-05T12:02:11.904Z,1031.4
2023-02-05T12:04:11.912Z,1031.4
2023-02-05T12:06:11.905Z,1031.4
2023-02-05T12:08:11.887Z,1031.5
2023-02-05T12:10:11.888Z,1031.5
2023-02-05T12:12:11.890Z,1031.5
2023-02-05T12:14:11.853Z,1031.5
2023-02-05T12:16:11.864Z,1031.5
2023-02-05T12:18:11.838Z,1031.5
2023-02-05T12:20:11.884Z,1031.5
2023-02-05T12:22:11.954Z,1031.6
2023-02-05T12:24:11.875Z,1031.6
2023-02-05T12:26:11.829Z,1031.6
2023-02-05T12:28:11.956Z,1031.5
2023-02-05T12:30:11.922Z,1031.5
2023-02-05T12:32:11.832Z,1031.5
2023-02-05T12:34:11.843Z,1031.5
2023-02-05T12:36:11.836Z,1031.5
2023-02-05T12:38:13.475Z,1031.5
2023-02-05T12:40:11.816Z,1031.5
2023-02-05T12:42:11.818Z,1031.4
2023-02-05T12:44:11.767Z,1031.4
2023-02-05T12:46:11.826Z,1031.4
2023-02-05T12:48:11.924Z,1031.3
2023-02-05T12:50:11.968Z,1031.3
2023-02-05T12:52:11.815Z,1031.3
2023-02-05T12:54:16.300Z,1031.3
2023-02-05T12:56:11.821Z,1031.3
2023-02-05T12:58:11.779Z,1031.3
2023-02-05T13:00:11.937Z,1031.3
2023-02-05T13:02:11.812Z,1031.3
2023-02-05T13:04:11.826Z,1031.4
2023-02-05T13:06:11.829Z,1031.3
2023-02-05T13:08:11.803Z,1031.3
2023-02-05T13:10:11.882Z,1031.3
2023-02-05T13:12:11.804Z,1031.3
2023-02-05T13:14:11.764Z,1031.2
2023-02-05T13:16:11.773Z,1031.2
2023-02-05T13:18:11.829Z,1031.2
2023-02-05T13:20:11.832Z,1031.1
2023-02-05T13:22:11.804Z,1031.1
2023-02-05T13:24:11.825Z,1031.1
2023-02-05T13:26:11.923Z,1031.1
2023-02-05T13:28:13.166Z,1031.1
2023-02-05T13:30:11.810Z,1031.1
2023-02-05T13:32:15.483Z,1031.1
2023-02-05T13:34:11.749Z,1031
2023-02-05T13:36:11.891Z,1031
2023-02-05T13:38:11.786Z,1031
2023-02-05T13:40:11.799Z,1030.9
2023-02-05T13:42:13.137Z,1030.9
2023-02-05T13:44:11.810Z,1030.9
2023-02-05T13:46:11.898Z,1030.9
2023-02-05T13:48:12.664Z,1030.9
2023-02-05T13:50:11.964Z,1031
2023-02-05T13:52:11.754Z,1030.9
2023-02-05T13:54:11.890Z,1030.9
2023-02-05T13:56:11.962Z,1030.9
2023-02-05T13:58:11.826Z,1030.9
2023-02-05T14:00:11.843Z,1030.9
2023-02-05T14:02:11.808Z,1030.9
2023-02-05T14:04:11.754Z,1030.9
2023-02-05T14:06:11.951Z,1030.9
2023-02-05T14:08:11.829Z,1030.9
2023-02-05T14:10:11.831Z,1030.8
2023-02-05T14:12:11.714Z,1030.8
2023-02-05T14:14:11.798Z,1030.7
2023-02-05T14:16:11.844Z,1030.8
2023-02-05T14:18:11.896Z,1030.8
2023-02-05T14:20:11.699Z,1030.7
2023-02-05T14:22:11.664Z,1030.6
2023-02-05T14:24:13.119Z,1030.6
2023-02-05T14:26:12.110Z,1030.5
2023-02-05T14:28:11.846Z,1030.6
2023-02-05T14:30:11.833Z,1030.6
2023-02-05T14:32:11.688Z,1030.6
2023-02-05T14:34:21.935Z,1030.5
2023-02-05T14:36:11.734Z,1030.5
2023-02-05T14:38:11.842Z,1030.4
2023-02-05T14:40:12.000Z,1030.4
2023-02-05T14:42:11.697Z,1030.4
2023-02-05T14:44:11.857Z,1030.4
2023-02-05T14:46:11.799Z,1030.3
2023-02-05T14:48:11.691Z,1030.3
2023-02-05T14:50:11.832Z,1030.3
2023-02-05T14:52:11.776Z,1030.3
2023-02-05T14:54:11.688Z,1030.3
2023-02-05T14:56:11.673Z,1030.3
2023-02-05T14:58:11.673Z,1030.2
2023-02-05T15:00:11.916Z,1030.2
2023-02-05T15:02:11.706Z,1030.2
2023-02-05T15:04:11.646Z,1030.2
2023-02-05T15:06:11.638Z,1030.1
2023-02-05T15:08:11.645Z,1030.1
2023-02-05T15:10:19.282Z,1030
2023-02-05T15:12:11.718Z,1030
2023-02-05T15:14:11.630Z,1030
2023-02-05T15:16:11.657Z,1030
2023-02-05T15:18:11.758Z,1029.9
2023-02-05T15:20:11.717Z,1029.9
2023-02-05T15:22:11.631Z,1029.8
2023-02-05T15:24:11.685Z,1029.8
2023-02-05T15:26:11.630Z,1029.8
2023-02-05T15:28:11.755Z,1029.8
2023-02-05T15:30:11.719Z,1029.8
2023-02-05T15:32:36.059Z,1029.7
2023-02-05T15:34:11.630Z,1029.6
2023-02-05T15:36:11.701Z,1029.6
2023-02-05T15:38:11.751Z,1029.6
2023-02-05T15:40:11.609Z,1029.5
2023-02-05T15:42:11.650Z,1029.5
2023-02-05T15:44:11.600Z,1029.4
2023-02-05T15:46:11.604Z,1029.4
2023-02-05T15:48:13.070Z,1029.4
2023-02-05T15:50:11.649Z,1029.3
2023-02-05T15:52:11.575Z,1029.2
2023-02-05T15:54:15.836Z,1029.2
2023-02-05T15:56:11.787Z,1029.1
2023-02-05T15:58:13.004Z,1029.1
2023-02-05T16:00:11.609Z,1029
2023-02-05T16:02:11.740Z,1029
2023-02-05T16:04:11.677Z,1028.9
2023-02-05T16:06:11.644Z,1028.9
2023-02-05T16:08:11.571Z,1028.8
2023-02-05T16:10:11.566Z,1028.8
2023-02-05T16:12:11.573Z,1028.7
2023-02-05T16:14:11.568Z,1028.6
2023-02-05T16:16:11.697Z,1028.6
2023-02-05T16:18:11.777Z,1028.6
2023-02-05T16:20:19.357Z,1028.5
2023-02-05T16:22:11.680Z,1028.5
2023-02-05T16:24:11.560Z,1028.4
2023-02-05T16:26:13.114Z,1028.4
2023-02-05T16:28:11.643Z,1028.4
2023-02-05T16:30:15.952Z,1028.3
2023-02-05T16:32:11.563Z,1028.3
2023-02-05T16:34:12.701Z,1028.2
2023-02-05T16:36:11.647Z,1028.2
2023-02-05T16:38:11.557Z,1028.2
2023-02-05T16:40:11.584Z,1028.1
2023-02-05T16:42:11.533Z,1028
2023-02-05T16:44:11.621Z,1028
2023-02-05T16:46:11.630Z,1028
2023-02-05T16:48:12.880Z,1027.9
2023-02-05T16:50:12.653Z,1027.9
2023-02-05T16:52:11.742Z,1027.7
2023-02-05T16:54:12.884Z,1027.7
2023-02-05T16:56:12.662Z,1027.7
2023-02-05T16:58:11.533Z,1027.7
2023-02-05T17:00:12.890Z,1027.6
2023-02-05T17:02:12.764Z,1027.5
2023-02-05T17:04:11.531Z,1027.4
2023-02-05T17:06:11.547Z,1027.3
2023-02-05T17:08:11.515Z,1027.2
2023-02-05T17:10:11.531Z,1027.1
2023-02-05T17:12:13.002Z,1027.1
2023-02-05T17:14:12.952Z,1027
2023-02-05T17:16:23.712Z,1027
2023-02-05T17:18:11.505Z,1027
2023-02-05T17:20:11.498Z,1027
2023-02-05T17:22:11.524Z,1026.9
2023-02-05T17:24:11.503Z,1026.8
2023-02-05T17:26:11.536Z,1026.7
2023-02-05T17:28:11.579Z,1026.7
2023-02-05T17:30:36.473Z,1026.7
2023-02-05T17:32:17.338Z,1026.6
2023-02-05T17:34:11.619Z,1026.6
2023-02-05T17:36:12.819Z,1026.4
2023-02-05T17:38:13.633Z,1026.5
2023-02-05T17:40:11.475Z,1026.4
2023-02-05T17:42:11.587Z,1026.3
2023-02-05T17:44:12.827Z,1026.2
2023-02-05T17:46:12.744Z,1026.2
2023-02-05T17:48:12.913Z,1026.1
2023-02-05T17:50:11.485Z,1026
2023-02-05T17:52:11.409Z,1025.9
2023-02-05T17:54:13.285Z,1025.9
2023-02-05T17:56:12.774Z,1025.8
2023-02-05T17:58:11.555Z,1025.8
2023-02-05T18:00:16.099Z,1025.8
2023-02-05T18:02:15.691Z,1025.7
2023-02-05T18:04:11.713Z,1025.7
2023-02-05T18:06:11.424Z,1025.6
2023-02-05T18:08:11.544Z,1025.6
2023-02-05T18:10:11.582Z,1025.6
2023-02-05T18:12:11.623Z,1025.5
2023-02-05T18:14:11.613Z,1025.5
2023-02-05T18:16:12.397Z,1025.4
2023-02-05T18:18:11.703Z,1025.4
2023-02-05T18:20:11.694Z,1025.4
2023-02-05T18:22:14.026Z,1025.3
2023-02-05T18:24:11.553Z,1025.3
2023-02-05T18:26:11.545Z,1025.2
2023-02-05T18:28:11.459Z,1025.2
2023-02-05T18:30:19.182Z,1025.1
2023-02-05T18:32:19.308Z,1025.1
2023-02-05T18:34:11.647Z,1025
2023-02-05T18:36:11.469Z,1025
2023-02-05T18:38:11.361Z,1024.9
2023-02-05T18:40:12.695Z,1024.9
2023-02-05T18:42:11.401Z,1024.9
2023-02-05T18:44:11.398Z,1024.9
2023-02-05T18:46:11.621Z,1024.8
2023-02-05T18:48:14.356Z,1024.8
2023-02-05T18:50:29.203Z,1024.7
2023-02-05T18:52:13.874Z,1024.6
2023-02-05T18:54:14.069Z,1024.6
2023-02-05T18:56:12.696Z,1024.6
2023-02-05T18:58:11.371Z,1024.6
2023-02-05T19:00:39.177Z,1024.5
2023-02-05T19:02:11.463Z,1024.5
2023-02-05T19:04:11.371Z,1024.5
2023-02-05T19:06:15.475Z,1024.4
2023-02-05T19:08:15.800Z,1024.3
2023-02-05T19:10:11.537Z,1024.2
2023-02-05T19:12:11.522Z,1024.2
2023-02-05T19:14:17.337Z,1024.2
2023-02-05T19:16:11.536Z,1024.2
2023-02-05T19:18:11.428Z,1024.1
2023-02-05T19:20:11.487Z,1024.1
2023-02-05T19:22:13.870Z,1024.1
2023-02-05T19:24:11.401Z,1024
2023-02-05T19:32:01.844Z,1024
2023-02-05T19:34:11.301Z,1023.9
2023-02-05T19:36:11.297Z,1023.9
2023-02-05T19:38:11.308Z,1023.9
2023-02-05T19:40:11.276Z,1023.8
2023-02-05T19:42:11.262Z,1023.8
2023-02-05T19:44:11.285Z,1023.8
2023-02-05T19:46:11.358Z,1023.7
2023-02-05T19:48:11.295Z,1023.8
2023-02-05T19:50:11.294Z,1023.7
2023-02-05T19:52:11.277Z,1023.7
2023-02-05T19:54:11.275Z,1023.7
2023-02-05T19:56:11.275Z,1023.6
2023-02-05T19:58:11.245Z,1023.6
2023-02-05T20:00:11.286Z,1023.6
2023-02-05T20:02:11.267Z,1023.5
2023-02-05T20:04:11.272Z,1023.5
2023-02-05T20:06:11.225Z,1023.5
2023-02-05T20:08:11.255Z,1023.5
2023-02-05T20:10:11.294Z,1023.4
2023-02-05T20:12:12.969Z,1023.4
2023-02-05T20:14:11.288Z,1023.4
2023-02-05T20:16:11.259Z,1023.3
2023-02-05T20:18:11.279Z,1023.3
2023-02-05T20:20:17.832Z,1023.2
2023-02-05T20:22:11.261Z,1023.2
2023-02-05T20:24:11.208Z,1023.3
2023-02-05T20:26:11.264Z,1023.3
2023-02-05T20:33:22.062Z,1023.2
2023-02-05T20:34:11.482Z,1023.2
2023-02-05T20:36:11.216Z,1023.2
2023-02-05T20:38:11.285Z,1023.4
2023-02-05T20:40:11.232Z,1023.3
2023-02-05T20:42:11.193Z,1023.4
2023-02-05T20:44:11.255Z,1023.4
2023-02-05T20:46:11.251Z,1023.3
2023-02-05T20:48:11.241Z,1023.3
2023-02-05T20:50:11.200Z,1023.4
2023-02-05T20:52:11.238Z,1023.3
2023-02-05T20:54:11.248Z,1023.3
2023-02-05T20:56:11.241Z,1023.3
2023-02-05T20:58:11.186Z,1023.2
2023-02-05T21:00:11.212Z,1023.2
2023-02-05T21:02:11.244Z,1023.1
2023-02-05T21:04:11.201Z,1023.1
2023-02-05T21:06:11.226Z,1023.1
2023-02-05T21:08:11.175Z,1023
2023-02-05T21:10:11.197Z,1023.1
2023-02-05T21:12:11.393Z,1023.1
2023-02-05T21:14:11.226Z,1023.1
2023-02-05T21:16:11.350Z,1023.1
2023-02-05T21:18:11.184Z,1023.1
2023-02-05T21:20:11.203Z,1023.1
2023-02-05T21:22:11.228Z,1023.1
2023-02-05T21:23:58.727Z,1023.1
2023-02-05T21:26:11.246Z,1023.1
2023-02-05T21:28:11.216Z,1023.1
2023-02-05T21:30:12.519Z,1023
2023-02-05T21:32:11.260Z,1023
2023-02-05T21:34:11.331Z,1023.1
2023-02-05T21:36:37.198Z,1023.1
2023-02-05T21:38:15.625Z,1023.2
2023-02-05T21:40:14.241Z,1023.2
2023-02-05T21:42:11.226Z,1023.1
2023-02-05T21:44:15.653Z,1023.1
2023-02-05T21:46:11.650Z,1023.1
2023-02-05T21:48:11.236Z,1023
2023-02-05T21:50:11.299Z,1023
2023-02-05T21:52:15.374Z,1022.9
2023-02-05T21:54:12.416Z,1022.9
2023-02-05T21:56:11.349Z,1022.9
2023-02-05T21:58:11.274Z,1022.9
2023-02-05T22:00:18.855Z,1022.9
2023-02-05T22:02:11.280Z,1022.9
2023-02-05T22:04:12.842Z,1023
2023-02-05T22:06:12.583Z,1023
2023-02-05T22:08:11.993Z,1023
2023-02-05T22:10:11.180Z,1022.9
2023-02-05T22:12:11.238Z,1022.9
2023-02-05T22:14:11.230Z,1023
2023-02-05T22:16:15.347Z,1022.9
2023-02-05T22:18:11.146Z,1022.8
2023-02-05T22:20:11.131Z,1022.9
2023-02-05T22:22:11.165Z,1022.9
2023-02-05T22:24:15.460Z,1022.9
2023-02-05T22:26:12.462Z,1023
2023-02-05T22:28:12.514Z,1023
2023-02-05T22:30:11.289Z,1022.9
2023-02-05T22:32:12.372Z,1022.9
2023-02-05T22:34:13.860Z,1022.8
2023-02-05T22:36:11.244Z,1022.8
2023-02-05T22:38:11.242Z,1022.9
2023-02-05T22:40:11.519Z,1022.9
2023-02-05T22:42:12.241Z,1022.9
2023-02-05T22:44:20.506Z,1022.9
2023-02-05T22:46:11.239Z,1022.9
2023-02-05T22:48:18.752Z,1022.9
2023-02-05T22:50:11.240Z,1022.8
2023-02-05T22:52:21.786Z,1022.8
2023-02-05T22:54:11.153Z,1022.7
2023-02-05T22:56:11.195Z,1022.6
2023-02-05T22:58:11.170Z,1022.6
2023-02-05T23:00:11.249Z,1022.6
2023-02-05T23:02:30.356Z,1022.6
2023-02-05T23:04:11.212Z,1022.6
2023-02-05T23:06:11.112Z,1022.5
2023-02-05T23:08:11.040Z,1022.6
2023-02-05T23:10:11.028Z,1022.5
2023-02-05T23:12:11.488Z,1022.6
2023-02-05T23:14:11.100Z,1022.6
2023-02-05T23:16:11.156Z,1022.5
2023-02-05T23:18:11.013Z,1022.5
2023-02-05T23:20:11.142Z,1022.4
2023-02-05T23:22:11.114Z,1022.4
2023-02-05T23:24:11.136Z,1022.4
2023-02-05T23:26:11.033Z,1022.4
2023-02-05T23:28:11.037Z,1022.4
2023-02-05T23:30:12.528Z,1022.5
2023-02-05T23:32:11.198Z,1022.5
2023-02-05T23:34:12.496Z,1022.5
2023-02-05T23:36:11.106Z,1022.5
2023-02-05T23:38:11.014Z,1022.5
2023-02-05T23:40:11.113Z,1022.5
2023-02-05T23:42:11.068Z,1022.5
2023-02-05T23:44:11.136Z,1022.5
2023-02-05T23:46:11.075Z,1022.4
2023-02-05T23:48:11.122Z,1022.4
2023-02-05T23:50:11.062Z,1022.3
2023-02-05T23:52:11.116Z,1022.3
2023-02-05T23:54:11.099Z,1022.4
2023-02-05T23:56:10.968Z,1022.4
2023-02-05T23:58:11.049Z,1022.4
